createdAt,value
2016-08-15T00:00:24.028Z,0
2016-08-15T00:00:48.257Z,0
2016-08-15T00:01:12.387Z,0
2016-08-15T00:01:36.535Z,0
2016-08-15T00:02:00.689Z,0
2016-08-15T00:02:24.803Z,0
2016-08-15T00:02:48.941Z,0
2016-08-15T00:03:13.052Z,0
2016-08-15T00:03:37.193Z,0
2016-08-15T00:04:01.299Z,0
2016-08-15T00:04:25.428Z,0
2016-08-15T00:04:49.536Z,0
2016-08-15T00:05:13.680Z,0
2016-08-15T00:05:37.807Z,0
2016-08-15T00:06:01.936Z,0
2016-08-15T00:06:26.067Z,0
2016-08-15T00:06:50.192Z,0
2016-08-15T00:07:14.294Z,0
2016-08-15T00:07:38.450Z,0
2016-08-15T00:08:02.584Z,0
2016-08-15T00:08:26.692Z,0
2016-08-15T00:08:50.827Z,0
2016-08-15T00:09:14.936Z,0
2016-08-15T00:09:39.059Z,0
2016-08-15T00:10:03.195Z,0
2016-08-15T00:10:27.349Z,0
2016-08-15T00:10:51.475Z,0
2016-08-15T00:11:15.610Z,0
2016-08-15T00:11:39.720Z,0
2016-08-15T00:12:03.829Z,0
2016-08-15T00:12:27.939Z,0
2016-08-15T00:12:52.080Z,0
2016-08-15T00:13:16.193Z,0
2016-08-15T00:13:40.309Z,0
2016-08-15T00:14:04.449Z,0
2016-08-15T00:14:28.550Z,0
2016-08-15T00:14:52.691Z,0
2016-08-15T00:15:16.894Z,0
2016-08-15T00:15:41.016Z,0
2016-08-15T00:16:05.154Z,0
2016-08-15T00:16:29.283Z,0
2016-08-15T00:16:53.425Z,0
2016-08-15T00:17:17.544Z,0
2016-08-15T00:17:41.669Z,0
2016-08-15T00:18:05.786Z,0
2016-08-15T00:18:29.912Z,0
2016-08-15T00:18:54.026Z,0
2016-08-15T00:19:18.808Z,0
2016-08-15T00:19:42.943Z,0
2016-08-15T00:20:07.052Z,0
2016-08-15T00:20:31.186Z,0
2016-08-15T00:20:55.314Z,0
2016-08-15T00:21:19.475Z,0
2016-08-15T00:21:43.586Z,0
2016-08-15T00:22:07.734Z,0
2016-08-15T00:22:31.872Z,0
2016-08-15T00:22:56.027Z,0
2016-08-15T00:23:20.143Z,0
2016-08-15T00:23:44.266Z,0
2016-08-15T00:24:08.416Z,0
2016-08-15T00:24:32.562Z,0
2016-08-15T00:24:56.707Z,0
2016-08-15T00:25:20.847Z,0
2016-08-15T00:25:44.967Z,0
2016-08-15T00:26:09.086Z,0
2016-08-15T00:26:33.259Z,0
2016-08-15T00:26:57.346Z,0
2016-08-15T00:27:21.459Z,0
2016-08-15T00:27:45.603Z,0
2016-08-15T00:28:09.765Z,0
2016-08-15T00:28:33.869Z,0
2016-08-15T00:28:58.057Z,0
2016-08-15T00:29:22.156Z,0
2016-08-15T00:29:46.300Z,0
2016-08-15T00:30:10.447Z,0
2016-08-15T00:30:34.586Z,0
2016-08-15T00:30:58.715Z,0
2016-08-15T00:31:22.843Z,0
2016-08-15T00:31:46.962Z,0
2016-08-15T00:32:11.142Z,0
2016-08-15T00:32:35.269Z,0
2016-08-15T00:32:59.408Z,0
2016-08-15T00:33:23.509Z,0
2016-08-15T00:33:47.647Z,0
2016-08-15T00:34:11.766Z,0
2016-08-15T00:34:35.870Z,0
2016-08-15T00:34:59.995Z,0
2016-08-15T00:35:24.133Z,0
2016-08-15T00:35:48.253Z,0
2016-08-15T00:36:12.389Z,0
2016-08-15T00:36:36.542Z,0
2016-08-15T00:37:00.722Z,0
2016-08-15T00:37:24.883Z,0
2016-08-15T00:37:48.979Z,0
2016-08-15T00:38:13.153Z,0
2016-08-15T00:38:37.274Z,0
2016-08-15T00:39:01.469Z,0
2016-08-15T00:39:25.650Z,0
2016-08-15T00:39:49.834Z,0
2016-08-15T00:40:13.996Z,0
2016-08-15T00:40:38.115Z,0
2016-08-15T00:41:02.240Z,0
2016-08-15T00:41:26.431Z,0
2016-08-15T00:41:50.590Z,0
2016-08-15T00:42:14.706Z,0
2016-08-15T00:42:38.859Z,0
2016-08-15T00:43:03.007Z,0
2016-08-15T00:43:27.170Z,0
2016-08-15T00:43:51.302Z,0
2016-08-15T00:44:15.440Z,0
2016-08-15T00:44:39.571Z,0
2016-08-15T00:45:03.716Z,0
2016-08-15T00:45:27.837Z,0
2016-08-15T00:45:51.965Z,0
2016-08-15T00:46:16.075Z,0
2016-08-15T00:46:40.264Z,0
2016-08-15T00:47:04.350Z,0
2016-08-15T00:47:28.516Z,0
2016-08-15T00:47:52.607Z,0
2016-08-15T00:48:16.749Z,0
2016-08-15T00:48:40.967Z,0
2016-08-15T00:49:05.057Z,0
2016-08-15T00:49:29.169Z,0
2016-08-15T00:49:53.327Z,0
2016-08-15T00:50:17.431Z,0
2016-08-15T00:50:41.568Z,0
2016-08-15T00:51:05.710Z,0
2016-08-15T00:51:29.826Z,0
2016-08-15T00:51:53.955Z,0
2016-08-15T00:52:18.104Z,0
2016-08-15T00:52:42.273Z,0
2016-08-15T00:53:06.443Z,0
2016-08-15T00:53:30.625Z,0
2016-08-15T00:53:54.772Z,0
2016-08-15T00:54:18.889Z,0
2016-08-15T00:54:43.050Z,0
2016-08-15T00:55:07.177Z,0
2016-08-15T00:55:31.313Z,0
2016-08-15T00:55:55.455Z,0
2016-08-15T00:56:19.632Z,0
2016-08-15T00:56:43.758Z,0
2016-08-15T00:57:07.900Z,0
2016-08-15T00:57:32.009Z,0
2016-08-15T00:57:56.143Z,0
2016-08-15T00:58:20.247Z,0
2016-08-15T00:58:44.391Z,0
2016-08-15T00:59:08.551Z,0
2016-08-15T00:59:32.708Z,0
2016-08-15T00:59:56.841Z,0
2016-08-15T01:00:20.956Z,0
2016-08-15T01:00:45.111Z,0
2016-08-15T01:01:09.266Z,0
2016-08-15T01:01:33.396Z,0
2016-08-15T01:01:57.513Z,0
2016-08-15T01:02:21.630Z,0
2016-08-15T01:02:45.733Z,0
2016-08-15T01:03:09.855Z,0
2016-08-15T01:03:33.971Z,0
2016-08-15T01:03:58.083Z,0
2016-08-15T01:04:22.242Z,0
2016-08-15T01:04:46.349Z,0
2016-08-15T01:05:10.469Z,0
2016-08-15T01:05:34.559Z,0
2016-08-15T01:05:58.688Z,0
2016-08-15T01:06:22.827Z,0
2016-08-15T01:06:46.946Z,0
2016-08-15T01:07:11.084Z,0
2016-08-15T01:07:35.207Z,0
2016-08-15T01:07:59.329Z,0
2016-08-15T01:08:23.463Z,0
2016-08-15T01:08:47.578Z,0
2016-08-15T01:09:11.682Z,0
2016-08-15T01:09:35.782Z,0
2016-08-15T01:09:59.921Z,0
2016-08-15T01:10:24.077Z,0
2016-08-15T01:10:48.179Z,0
2016-08-15T01:11:12.294Z,0
2016-08-15T01:11:36.416Z,0
2016-08-15T01:12:00.550Z,0
2016-08-15T01:12:24.660Z,0
2016-08-15T01:12:48.760Z,0
2016-08-15T01:13:12.875Z,0
2016-08-15T01:13:37.035Z,0
2016-08-15T01:14:01.179Z,0
2016-08-15T01:14:25.335Z,0
2016-08-15T01:14:49.483Z,0
2016-08-15T01:15:13.634Z,0
2016-08-15T01:15:37.742Z,0
2016-08-15T01:16:01.892Z,0
2016-08-15T01:16:26.018Z,0
2016-08-15T01:16:50.181Z,0
2016-08-15T01:17:14.314Z,0
2016-08-15T01:17:38.530Z,0
2016-08-15T01:18:02.646Z,0
2016-08-15T01:18:26.757Z,0
2016-08-15T01:18:50.907Z,0
2016-08-15T01:19:15.036Z,0
2016-08-15T01:19:39.145Z,0
2016-08-15T01:20:03.240Z,0
2016-08-15T01:20:27.378Z,0
2016-08-15T01:20:51.478Z,0
2016-08-15T01:21:15.623Z,0
2016-08-15T01:21:39.735Z,0
2016-08-15T01:22:03.860Z,0
2016-08-15T01:22:27.974Z,0
2016-08-15T01:22:52.115Z,0
2016-08-15T01:23:16.250Z,0
2016-08-15T01:23:40.386Z,0
2016-08-15T01:24:04.493Z,0
2016-08-15T01:24:28.597Z,0
2016-08-15T01:24:52.731Z,0
2016-08-15T01:25:16.828Z,0
2016-08-15T01:25:41.029Z,0
2016-08-15T01:26:05.205Z,0
2016-08-15T01:26:29.339Z,0
2016-08-15T01:26:53.456Z,0
2016-08-15T01:27:17.574Z,0
2016-08-15T01:27:41.675Z,0
2016-08-15T01:28:05.827Z,0
2016-08-15T01:28:29.951Z,0
2016-08-15T01:28:54.092Z,0
2016-08-15T01:29:18.215Z,0
2016-08-15T01:29:42.361Z,0
2016-08-15T01:30:06.482Z,0
2016-08-15T01:30:30.601Z,0
2016-08-15T01:30:54.725Z,0
2016-08-15T01:31:18.831Z,0
2016-08-15T01:31:42.951Z,0
2016-08-15T01:32:07.065Z,0
2016-08-15T01:32:31.222Z,0
2016-08-15T01:32:55.380Z,0
2016-08-15T01:33:19.518Z,0
2016-08-15T01:33:43.667Z,0
2016-08-15T01:34:07.754Z,0
2016-08-15T01:34:31.867Z,0
2016-08-15T01:34:55.977Z,0
2016-08-15T01:35:20.087Z,0
2016-08-15T01:35:44.212Z,0
2016-08-15T01:36:08.331Z,0
2016-08-15T01:36:32.431Z,0
2016-08-15T01:36:56.528Z,0
2016-08-15T01:37:20.632Z,0
2016-08-15T01:37:44.789Z,0
2016-08-15T01:38:08.922Z,0
2016-08-15T01:38:33.040Z,0
2016-08-15T01:38:57.157Z,0
2016-08-15T01:39:21.278Z,0
2016-08-15T01:39:45.406Z,0
2016-08-15T01:40:09.538Z,0
2016-08-15T01:40:33.655Z,0
2016-08-15T01:40:57.761Z,0
2016-08-15T01:41:21.870Z,0
2016-08-15T01:41:45.965Z,0
2016-08-15T01:42:10.130Z,0
2016-08-15T01:42:34.243Z,0
2016-08-15T01:42:58.354Z,0
2016-08-15T01:43:22.512Z,0
2016-08-15T01:43:46.634Z,0
2016-08-15T01:44:10.782Z,0
2016-08-15T01:44:34.914Z,0
2016-08-15T01:44:59.057Z,0
2016-08-15T01:45:23.167Z,0
2016-08-15T01:45:47.294Z,0
2016-08-15T01:46:11.408Z,0
2016-08-15T01:46:35.535Z,0
2016-08-15T01:46:59.688Z,0
2016-08-15T01:47:23.827Z,0
2016-08-15T01:47:48.032Z,0
2016-08-15T01:48:12.213Z,0
2016-08-15T01:48:36.381Z,0
2016-08-15T01:49:00.519Z,0
2016-08-15T01:49:24.641Z,0
2016-08-15T01:49:48.743Z,0
2016-08-15T01:50:12.863Z,0
2016-08-15T01:50:36.997Z,0
2016-08-15T01:51:01.118Z,0
2016-08-15T01:51:25.232Z,0
2016-08-15T01:51:49.353Z,0
2016-08-15T01:52:13.512Z,0
2016-08-15T01:52:37.643Z,0
2016-08-15T01:53:01.795Z,0
2016-08-15T01:53:25.920Z,0
2016-08-15T01:53:50.041Z,0
2016-08-15T01:54:14.155Z,0
2016-08-15T01:54:38.262Z,0
2016-08-15T01:55:02.417Z,0
2016-08-15T01:55:26.574Z,0
2016-08-15T01:55:50.722Z,0
2016-08-15T01:56:14.834Z,0
2016-08-15T01:56:38.954Z,0
2016-08-15T01:57:03.101Z,0
2016-08-15T01:57:27.230Z,0
2016-08-15T01:57:51.339Z,0
2016-08-15T01:58:15.467Z,0
2016-08-15T01:58:39.630Z,0
2016-08-15T01:59:03.781Z,0
2016-08-15T01:59:27.907Z,0
2016-08-15T01:59:52.074Z,0
2016-08-15T02:00:16.242Z,0
2016-08-15T02:00:40.361Z,0
2016-08-15T02:01:04.477Z,0
2016-08-15T02:01:28.654Z,0
2016-08-15T02:01:52.832Z,0
2016-08-15T02:02:16.959Z,0
2016-08-15T02:02:41.076Z,0
2016-08-15T02:03:05.195Z,0
2016-08-15T02:03:29.324Z,0
2016-08-15T02:03:53.483Z,0
2016-08-15T02:04:17.634Z,0
2016-08-15T02:04:41.770Z,0
2016-08-15T02:05:05.886Z,0
2016-08-15T02:05:30.006Z,0
2016-08-15T02:05:54.112Z,0
2016-08-15T02:06:18.328Z,0
2016-08-15T02:06:42.484Z,0
2016-08-15T02:07:06.631Z,0
2016-08-15T02:07:30.728Z,0
2016-08-15T02:07:54.861Z,0
2016-08-15T02:08:18.970Z,0
2016-08-15T02:08:43.111Z,0
2016-08-15T02:09:07.246Z,0
2016-08-15T02:09:31.372Z,0
2016-08-15T02:09:55.534Z,0
2016-08-15T02:10:19.695Z,0
2016-08-15T02:10:43.848Z,0
2016-08-15T02:11:07.999Z,0
2016-08-15T02:11:32.131Z,0
2016-08-15T02:11:56.266Z,0
2016-08-15T02:12:20.373Z,0
2016-08-15T02:12:44.537Z,0
2016-08-15T02:13:08.685Z,0
2016-08-15T02:13:32.811Z,0
2016-08-15T02:13:56.944Z,0
2016-08-15T02:14:21.120Z,0
2016-08-15T02:14:45.243Z,0
2016-08-15T02:15:09.434Z,0
2016-08-15T02:15:33.577Z,0
2016-08-15T02:15:58.581Z,0
2016-08-15T02:16:22.698Z,0
2016-08-15T02:16:46.834Z,0
2016-08-15T02:17:10.964Z,0
2016-08-15T02:17:35.094Z,0
2016-08-15T02:17:59.246Z,0
2016-08-15T02:18:23.419Z,0
2016-08-15T02:18:47.593Z,0
2016-08-15T02:19:11.746Z,0
2016-08-15T02:19:35.847Z,0
2016-08-15T02:20:00.038Z,0
2016-08-15T02:20:24.156Z,0
2016-08-15T02:20:48.293Z,0
2016-08-15T02:21:12.387Z,0
2016-08-15T02:21:36.542Z,0
2016-08-15T02:22:00.709Z,0
2016-08-15T02:22:24.845Z,0
2016-08-15T02:22:48.966Z,0
2016-08-15T02:23:13.120Z,0
2016-08-15T02:23:37.286Z,0
2016-08-15T02:24:01.404Z,0
2016-08-15T02:24:25.559Z,0
2016-08-15T02:24:49.766Z,0
2016-08-15T02:25:13.903Z,0
2016-08-15T02:25:38.028Z,0
2016-08-15T02:26:02.168Z,0
2016-08-15T02:26:26.306Z,0
2016-08-15T02:26:50.465Z,0
2016-08-15T02:27:14.625Z,0
2016-08-15T02:27:38.770Z,0
2016-08-15T02:28:02.931Z,0
2016-08-15T02:28:27.054Z,0
2016-08-15T02:28:51.211Z,0
2016-08-15T02:29:15.357Z,0
2016-08-15T02:29:39.485Z,0
2016-08-15T02:30:03.646Z,0
2016-08-15T02:30:27.789Z,0
2016-08-15T02:30:51.915Z,0
2016-08-15T02:31:16.026Z,0
2016-08-15T02:31:40.129Z,0
2016-08-15T02:32:04.335Z,0
2016-08-15T02:32:28.484Z,0
2016-08-15T02:32:52.625Z,0
2016-08-15T02:33:16.771Z,0
2016-08-15T02:33:40.873Z,0
2016-08-15T02:34:05.048Z,0
2016-08-15T02:34:29.200Z,0
2016-08-15T02:34:53.338Z,0
2016-08-15T02:35:17.476Z,0
2016-08-15T02:35:41.653Z,0
2016-08-15T02:36:05.769Z,0
2016-08-15T02:36:29.929Z,0
2016-08-15T02:36:54.122Z,0
2016-08-15T02:37:18.265Z,0
2016-08-15T02:37:42.397Z,0
2016-08-15T02:38:06.493Z,0
2016-08-15T02:38:30.629Z,0
2016-08-15T02:38:54.776Z,0
2016-08-15T02:39:18.912Z,0
2016-08-15T02:39:43.039Z,0
2016-08-15T02:40:07.164Z,0
2016-08-15T02:40:31.269Z,0
2016-08-15T02:40:55.411Z,0
2016-08-15T02:41:19.543Z,0
2016-08-15T02:41:43.658Z,0
2016-08-15T02:42:07.776Z,0
2016-08-15T02:42:31.900Z,0
2016-08-15T02:42:56.022Z,0
2016-08-15T02:43:20.166Z,0
2016-08-15T02:43:44.281Z,0
2016-08-15T02:44:08.422Z,0
2016-08-15T02:44:32.538Z,0
2016-08-15T02:44:56.735Z,0
2016-08-15T02:45:20.878Z,0
2016-08-15T02:45:45.004Z,0
2016-08-15T02:46:09.127Z,0
2016-08-15T02:46:33.241Z,0
2016-08-15T02:46:57.346Z,0
2016-08-15T02:47:21.481Z,0
2016-08-15T02:47:45.621Z,0
2016-08-15T02:48:09.749Z,0
2016-08-15T02:48:33.855Z,0
2016-08-15T02:48:57.967Z,0
2016-08-15T02:49:22.124Z,0
2016-08-15T02:49:46.231Z,0
2016-08-15T02:50:10.347Z,0
2016-08-15T02:50:34.503Z,0
2016-08-15T02:50:58.641Z,0
2016-08-15T02:51:22.805Z,0
2016-08-15T02:51:46.955Z,0
2016-08-15T02:52:11.074Z,0
2016-08-15T02:52:35.247Z,0
2016-08-15T02:52:59.415Z,0
2016-08-15T02:53:23.515Z,0
2016-08-15T02:53:47.637Z,0
2016-08-15T02:54:11.751Z,0
2016-08-15T02:54:35.843Z,0
2016-08-15T02:55:00.010Z,0
2016-08-15T02:55:24.143Z,0
2016-08-15T02:55:48.264Z,0
2016-08-15T02:56:12.375Z,0
2016-08-15T02:56:36.486Z,0
2016-08-15T02:57:00.613Z,0
2016-08-15T02:57:24.722Z,0
2016-08-15T02:57:48.851Z,0
2016-08-15T02:58:13.003Z,0
2016-08-15T02:58:37.106Z,0
2016-08-15T02:59:01.226Z,0
2016-08-15T02:59:25.392Z,0
2016-08-15T02:59:49.513Z,0
2016-08-15T03:00:13.631Z,0
2016-08-15T03:00:37.743Z,0
2016-08-15T03:01:01.994Z,0
2016-08-15T03:01:26.153Z,0
2016-08-15T03:01:50.244Z,0
2016-08-15T03:02:14.361Z,0
2016-08-15T03:02:38.451Z,0
2016-08-15T03:03:02.576Z,0
2016-08-15T03:03:26.715Z,0
2016-08-15T03:03:51.043Z,0
2016-08-15T03:04:15.195Z,0
2016-08-15T03:04:39.305Z,0
2016-08-15T03:05:03.444Z,0
2016-08-15T03:05:27.579Z,0
2016-08-15T03:05:51.700Z,0
2016-08-15T03:06:15.809Z,0
2016-08-15T03:06:39.967Z,0
2016-08-15T03:07:04.115Z,0
2016-08-15T03:07:28.255Z,0
2016-08-15T03:07:52.405Z,0
2016-08-15T03:08:16.540Z,0
2016-08-15T03:08:40.636Z,0
2016-08-15T03:09:04.808Z,0
2016-08-15T03:09:28.971Z,0
2016-08-15T03:09:53.080Z,0
2016-08-15T03:10:17.207Z,0
2016-08-15T03:10:41.324Z,0
2016-08-15T03:11:05.481Z,0
2016-08-15T03:11:29.575Z,0
2016-08-15T03:11:53.721Z,0
2016-08-15T03:12:17.846Z,0
2016-08-15T03:12:41.940Z,0
2016-08-15T03:13:06.104Z,0
2016-08-15T03:13:30.270Z,0
2016-08-15T03:13:54.365Z,0
2016-08-15T03:14:18.508Z,0
2016-08-15T03:14:42.635Z,0
2016-08-15T03:15:06.779Z,0
2016-08-15T03:15:30.936Z,0
2016-08-15T03:15:55.071Z,0
2016-08-15T03:16:19.183Z,0
2016-08-15T03:16:43.292Z,0
2016-08-15T03:17:07.458Z,0
2016-08-15T03:17:31.561Z,0
2016-08-15T03:17:55.676Z,0
2016-08-15T03:18:19.813Z,0
2016-08-15T03:18:43.959Z,0
2016-08-15T03:19:08.077Z,0
2016-08-15T03:19:32.195Z,0
2016-08-15T03:19:56.327Z,0
2016-08-15T03:20:20.449Z,0
2016-08-15T03:20:44.567Z,0
2016-08-15T03:21:08.701Z,0
2016-08-15T03:21:32.864Z,0
2016-08-15T03:21:56.982Z,0
2016-08-15T03:22:21.102Z,0
2016-08-15T03:22:45.298Z,0
2016-08-15T03:23:09.437Z,0
2016-08-15T03:23:33.613Z,0
2016-08-15T03:23:57.749Z,0
2016-08-15T03:24:21.932Z,0
2016-08-15T03:24:46.051Z,0
2016-08-15T03:25:10.179Z,0
2016-08-15T03:25:34.321Z,0
2016-08-15T03:25:58.460Z,0
2016-08-15T03:26:22.572Z,0
2016-08-15T03:26:46.715Z,0
2016-08-15T03:27:10.834Z,0
2016-08-15T03:27:34.957Z,0
2016-08-15T03:27:59.137Z,0
2016-08-15T03:28:23.250Z,0
2016-08-15T03:28:47.399Z,0
2016-08-15T03:29:11.528Z,0
2016-08-15T03:29:35.657Z,0
2016-08-15T03:29:59.756Z,0
2016-08-15T03:30:23.880Z,0
2016-08-15T03:30:47.991Z,0
2016-08-15T03:31:12.102Z,0
2016-08-15T03:31:36.206Z,0
2016-08-15T03:32:00.319Z,0
2016-08-15T03:32:24.455Z,0
2016-08-15T03:32:48.583Z,0
2016-08-15T03:33:12.680Z,0
2016-08-15T03:33:36.829Z,0
2016-08-15T03:34:00.938Z,0
2016-08-15T03:34:25.417Z,0
2016-08-15T03:34:49.532Z,0
2016-08-15T03:35:13.671Z,0
2016-08-15T03:35:37.778Z,0
2016-08-15T03:36:01.912Z,0
2016-08-15T03:36:26.101Z,0
2016-08-15T03:36:50.223Z,0
2016-08-15T03:37:14.350Z,0
2016-08-15T03:37:38.487Z,0
2016-08-15T03:38:02.598Z,0
2016-08-15T03:38:26.706Z,0
2016-08-15T03:38:50.838Z,0
2016-08-15T03:39:14.960Z,0
2016-08-15T03:39:39.077Z,0
2016-08-15T03:40:03.203Z,0
2016-08-15T03:40:27.361Z,0
2016-08-15T03:40:51.483Z,0
2016-08-15T03:41:15.605Z,0
2016-08-15T03:41:39.730Z,0
2016-08-15T03:42:03.827Z,0
2016-08-15T03:42:27.967Z,0
2016-08-15T03:42:52.106Z,0
2016-08-15T03:43:16.216Z,0
2016-08-15T03:43:40.344Z,0
2016-08-15T03:44:05.715Z,0
2016-08-15T03:44:29.863Z,0
2016-08-15T03:44:53.972Z,0
2016-08-15T03:45:18.117Z,0
2016-08-15T03:45:42.238Z,5
2016-08-15T03:46:06.417Z,5
2016-08-15T03:46:30.528Z,5
2016-08-15T03:46:54.693Z,5
2016-08-15T03:47:18.815Z,5
2016-08-15T03:47:42.956Z,5
2016-08-15T03:48:07.097Z,5
2016-08-15T03:48:31.235Z,5
2016-08-15T03:48:55.353Z,5
2016-08-15T03:49:19.463Z,5
2016-08-15T03:49:43.594Z,5
2016-08-15T03:50:07.706Z,5
2016-08-15T03:50:31.826Z,5
2016-08-15T03:50:55.961Z,5
2016-08-15T03:51:20.090Z,5
2016-08-15T03:51:44.233Z,5
2016-08-15T03:52:08.353Z,5
2016-08-15T03:52:32.453Z,5
2016-08-15T03:52:56.584Z,5
2016-08-15T03:53:20.689Z,5
2016-08-15T03:53:44.813Z,5
2016-08-15T03:54:08.952Z,5
2016-08-15T03:54:33.091Z,10
2016-08-15T03:54:57.236Z,10
2016-08-15T03:55:21.375Z,10
2016-08-15T03:55:45.529Z,10
2016-08-15T03:56:09.639Z,10
2016-08-15T03:56:33.775Z,10
2016-08-15T03:56:57.926Z,10
2016-08-15T03:57:22.059Z,10
2016-08-15T03:57:46.174Z,10
2016-08-15T03:58:10.335Z,10
2016-08-15T03:58:34.460Z,10
2016-08-15T03:58:58.597Z,10
2016-08-15T03:59:22.743Z,10
2016-08-15T03:59:47.067Z,10
2016-08-15T04:00:11.241Z,15
2016-08-15T04:00:35.351Z,15
2016-08-15T04:00:59.468Z,15
2016-08-15T04:01:23.582Z,15
2016-08-15T04:01:47.790Z,15
2016-08-15T04:02:11.909Z,15
2016-08-15T04:02:36.013Z,15
2016-08-15T04:03:00.155Z,15
2016-08-15T04:03:24.306Z,15
2016-08-15T04:03:48.461Z,15
2016-08-15T04:04:12.582Z,15
2016-08-15T04:04:36.702Z,15
2016-08-15T04:05:00.835Z,15
2016-08-15T04:05:25.021Z,20
2016-08-15T04:05:49.179Z,20
2016-08-15T04:06:13.285Z,20
2016-08-15T04:06:37.438Z,20
2016-08-15T04:07:01.566Z,20
2016-08-15T04:07:25.713Z,20
2016-08-15T04:07:49.872Z,20
2016-08-15T04:08:14.067Z,20
2016-08-15T04:08:38.216Z,20
2016-08-15T04:09:02.370Z,20
2016-08-15T04:09:26.505Z,20
2016-08-15T04:09:50.634Z,25
2016-08-15T04:10:14.847Z,25
2016-08-15T04:10:38.969Z,25
2016-08-15T04:11:03.084Z,25
2016-08-15T04:11:27.203Z,25
2016-08-15T04:11:51.315Z,25
2016-08-15T04:12:15.474Z,25
2016-08-15T04:12:39.610Z,25
2016-08-15T04:13:03.737Z,25
2016-08-15T04:13:27.863Z,25
2016-08-15T04:13:52.002Z,25
2016-08-15T04:14:16.124Z,30
2016-08-15T04:14:40.252Z,30
2016-08-15T04:15:04.401Z,30
2016-08-15T04:15:28.523Z,30
2016-08-15T04:15:52.671Z,30
2016-08-15T04:16:16.796Z,30
2016-08-15T04:16:40.932Z,30
2016-08-15T04:17:05.057Z,30
2016-08-15T04:17:29.156Z,35
2016-08-15T04:17:53.291Z,35
2016-08-15T04:18:17.462Z,35
2016-08-15T04:18:41.616Z,35
2016-08-15T04:19:05.739Z,35
2016-08-15T04:19:29.879Z,40
2016-08-15T04:19:54.054Z,40
2016-08-15T04:20:18.199Z,40
2016-08-15T04:20:42.302Z,40
2016-08-15T04:21:06.441Z,40
2016-08-15T04:21:30.596Z,45
2016-08-15T04:21:54.736Z,45
2016-08-15T04:22:18.842Z,45
2016-08-15T04:22:42.993Z,45
2016-08-15T04:23:07.197Z,45
2016-08-15T04:23:31.361Z,50
2016-08-15T04:23:55.490Z,50
2016-08-15T04:24:19.626Z,50
2016-08-15T04:24:43.758Z,50
2016-08-15T04:25:07.921Z,50
2016-08-15T04:25:32.082Z,50
2016-08-15T04:25:56.193Z,50
2016-08-15T04:26:20.362Z,55
2016-08-15T04:26:44.496Z,55
2016-08-15T04:27:08.644Z,55
2016-08-15T04:27:32.786Z,55
2016-08-15T04:27:56.911Z,55
2016-08-15T04:28:21.035Z,55
2016-08-15T04:28:45.175Z,55
2016-08-15T04:29:09.316Z,55
2016-08-15T04:29:33.463Z,55
2016-08-15T04:29:57.590Z,55
2016-08-15T04:30:21.706Z,55
2016-08-15T04:30:45.842Z,55
2016-08-15T04:31:09.963Z,55
2016-08-15T04:31:34.163Z,60
2016-08-15T04:31:58.288Z,60
2016-08-15T04:32:22.425Z,60
2016-08-15T04:32:46.559Z,60
2016-08-15T04:33:10.668Z,60
2016-08-15T04:33:34.808Z,60
2016-08-15T04:33:58.941Z,65
2016-08-15T04:34:23.095Z,65
2016-08-15T04:34:47.266Z,65
2016-08-15T04:35:11.361Z,65
2016-08-15T04:35:35.480Z,65
2016-08-15T04:35:59.633Z,65
2016-08-15T04:36:23.801Z,65
2016-08-15T04:36:47.928Z,65
2016-08-15T04:37:12.045Z,65
2016-08-15T04:37:36.172Z,65
2016-08-15T04:38:00.328Z,65
2016-08-15T04:38:24.468Z,65
2016-08-15T04:38:48.603Z,65
2016-08-15T04:39:12.714Z,65
2016-08-15T04:39:36.879Z,65
2016-08-15T04:40:01.034Z,65
2016-08-15T04:40:25.163Z,70
2016-08-15T04:40:49.291Z,70
2016-08-15T04:41:13.445Z,70
2016-08-15T04:41:37.590Z,70
2016-08-15T04:42:01.726Z,75
2016-08-15T04:42:25.858Z,75
2016-08-15T04:42:49.961Z,75
2016-08-15T04:43:14.102Z,75
2016-08-15T04:43:38.230Z,75
2016-08-15T04:44:02.396Z,80
2016-08-15T04:44:26.538Z,75
2016-08-15T04:44:50.652Z,80
2016-08-15T04:45:14.761Z,80
2016-08-15T04:45:38.898Z,80
2016-08-15T04:46:03.051Z,85
2016-08-15T04:46:27.175Z,80
2016-08-15T04:46:51.312Z,80
2016-08-15T04:47:15.474Z,85
2016-08-15T04:47:39.614Z,85
2016-08-15T04:48:03.761Z,85
2016-08-15T04:48:27.887Z,85
2016-08-15T04:48:52.003Z,85
2016-08-15T04:49:16.135Z,85
2016-08-15T04:49:40.254Z,90
2016-08-15T04:50:04.382Z,90
2016-08-15T04:50:28.542Z,90
2016-08-15T04:50:52.650Z,95
2016-08-15T04:51:16.832Z,95
2016-08-15T04:51:40.951Z,95
2016-08-15T04:52:05.976Z,95
2016-08-15T04:52:30.119Z,100
2016-08-15T04:52:54.273Z,100
2016-08-15T04:53:18.428Z,100
2016-08-15T04:53:42.565Z,95
2016-08-15T04:54:06.682Z,95
2016-08-15T04:54:30.829Z,95
2016-08-15T04:54:55.830Z,95
2016-08-15T04:55:19.997Z,90
2016-08-15T04:55:44.132Z,90
2016-08-15T04:56:08.242Z,90
2016-08-15T04:56:32.367Z,95
2016-08-15T04:56:56.487Z,95
2016-08-15T04:57:20.617Z,95
2016-08-15T04:57:44.756Z,90
2016-08-15T04:58:08.855Z,95
2016-08-15T04:58:32.988Z,95
2016-08-15T04:58:57.155Z,95
2016-08-15T04:59:21.301Z,95
2016-08-15T04:59:45.443Z,95
2016-08-15T05:00:09.548Z,100
2016-08-15T05:00:33.658Z,100
2016-08-15T05:00:57.773Z,105
2016-08-15T05:01:21.891Z,105
2016-08-15T05:01:46.015Z,105
2016-08-15T05:02:10.131Z,105
2016-08-15T05:02:34.262Z,110
2016-08-15T05:02:58.379Z,110
2016-08-15T05:03:22.490Z,115
2016-08-15T05:03:46.610Z,115
2016-08-15T05:04:10.753Z,120
2016-08-15T05:04:34.853Z,120
2016-08-15T05:04:58.962Z,120
2016-08-15T05:05:23.079Z,120
2016-08-15T05:05:47.205Z,120
2016-08-15T05:06:11.337Z,125
2016-08-15T05:06:35.476Z,120
2016-08-15T05:06:59.599Z,120
2016-08-15T05:07:23.735Z,120
2016-08-15T05:07:47.864Z,120
2016-08-15T05:08:11.991Z,125
2016-08-15T05:08:36.125Z,125
2016-08-15T05:09:00.232Z,130
2016-08-15T05:09:24.387Z,125
2016-08-15T05:09:48.559Z,125
2016-08-15T05:10:12.682Z,125
2016-08-15T05:10:36.792Z,125
2016-08-15T05:11:01.026Z,125
2016-08-15T05:11:25.195Z,125
2016-08-15T05:11:49.338Z,125
2016-08-15T05:12:13.473Z,125
2016-08-15T05:12:37.636Z,130
2016-08-15T05:13:01.929Z,130
2016-08-15T05:13:26.054Z,130
2016-08-15T05:13:50.159Z,135
2016-08-15T05:14:14.308Z,135
2016-08-15T05:14:38.438Z,135
2016-08-15T05:15:02.564Z,135
2016-08-15T05:15:26.692Z,135
2016-08-15T05:15:50.809Z,140
2016-08-15T05:16:14.940Z,140
2016-08-15T05:16:39.051Z,145
2016-08-15T05:17:03.189Z,140
2016-08-15T05:17:27.308Z,140
2016-08-15T05:17:51.444Z,145
2016-08-15T05:18:15.588Z,145
2016-08-15T05:18:39.718Z,145
2016-08-15T05:19:03.836Z,145
2016-08-15T05:19:27.964Z,150
2016-08-15T05:19:52.124Z,145
2016-08-15T05:20:16.280Z,145
2016-08-15T05:20:40.390Z,150
2016-08-15T05:21:04.532Z,150
2016-08-15T05:21:28.646Z,150
2016-08-15T05:21:52.763Z,150
2016-08-15T05:22:16.898Z,150
2016-08-15T05:22:41.046Z,150
2016-08-15T05:23:05.183Z,155
2016-08-15T05:23:29.319Z,160
2016-08-15T05:23:53.430Z,160
2016-08-15T05:24:17.528Z,160
2016-08-15T05:24:41.650Z,160
2016-08-15T05:25:05.817Z,160
2016-08-15T05:25:29.952Z,155
2016-08-15T05:25:54.094Z,155
2016-08-15T05:26:18.254Z,155
2016-08-15T05:26:42.381Z,160
2016-08-15T05:27:06.508Z,155
2016-08-15T05:27:30.647Z,155
2016-08-15T05:27:54.798Z,155
2016-08-15T05:28:18.963Z,155
2016-08-15T05:28:43.109Z,155
2016-08-15T05:29:07.245Z,160
2016-08-15T05:29:31.359Z,155
2016-08-15T05:29:55.478Z,155
2016-08-15T05:30:19.598Z,150
2016-08-15T05:30:43.719Z,150
2016-08-15T05:31:07.846Z,150
2016-08-15T05:31:31.975Z,150
2016-08-15T05:31:56.099Z,150
2016-08-15T05:32:20.233Z,150
2016-08-15T05:32:44.361Z,150
2016-08-15T05:33:08.482Z,150
2016-08-15T05:33:32.600Z,155
2016-08-15T05:33:57.306Z,155
2016-08-15T05:34:22.356Z,150
2016-08-15T05:34:46.473Z,150
2016-08-15T05:35:10.636Z,155
2016-08-15T05:35:34.777Z,155
2016-08-15T05:35:58.973Z,150
2016-08-15T05:36:23.081Z,150
2016-08-15T05:36:47.278Z,150
2016-08-15T05:37:11.411Z,150
2016-08-15T05:37:35.582Z,150
2016-08-15T05:37:59.695Z,150
2016-08-15T05:38:23.809Z,145
2016-08-15T05:38:47.930Z,145
2016-08-15T05:39:12.074Z,145
2016-08-15T05:39:36.209Z,145
2016-08-15T05:40:00.350Z,145
2016-08-15T05:40:24.474Z,145
2016-08-15T05:40:48.587Z,145
2016-08-15T05:41:12.698Z,150
2016-08-15T05:41:36.889Z,150
2016-08-15T05:42:01.016Z,150
2016-08-15T05:42:25.143Z,150
2016-08-15T05:42:49.288Z,150
2016-08-15T05:43:13.424Z,145
2016-08-15T05:43:37.498Z,140
2016-08-15T05:44:01.648Z,140
2016-08-15T05:44:25.767Z,140
2016-08-15T05:44:49.871Z,135
2016-08-15T05:45:13.974Z,140
2016-08-15T05:45:38.160Z,135
2016-08-15T05:46:02.292Z,135
2016-08-15T05:46:26.418Z,130
2016-08-15T05:46:50.568Z,130
2016-08-15T05:47:14.716Z,130
2016-08-15T05:47:38.817Z,130
2016-08-15T05:48:02.949Z,135
2016-08-15T05:48:27.097Z,130
2016-08-15T05:48:51.211Z,130
2016-08-15T05:49:15.324Z,130
2016-08-15T05:49:39.453Z,130
2016-08-15T05:50:03.608Z,135
2016-08-15T05:50:27.724Z,140
2016-08-15T05:50:51.856Z,145